sensor_id;sensor_type;location;lat;lon;timestamp;pressure;altitude;pressure_sealevel;temperature;humidity
59829;BME280;45708;51.848;107.620;2023-07-22T00:04:51;94662.53;;;18.66;64.99
59829;BME280;45708;51.848;107.620;2023-07-22T00:09:52;94670.06;;;18.54;64.98
59829;BME280;45708;51.848;107.620;2023-07-22T00:14:52;94663.63;;;18.16;65.69
59829;BME280;45708;51.848;107.620;2023-07-22T00:19:53;94667.38;;;18.15;65.63
59829;BME280;45708;51.848;107.620;2023-07-22T00:24:54;94671.56;;;18.31;65.63
59829;BME280;45708;51.848;107.620;2023-07-22T00:29:55;94672.72;;;18.64;65.10
59829;BME280;45708;51.848;107.620;2023-07-22T00:34:55;94678.47;;;18.76;64.78
59829;BME280;45708;51.848;107.620;2023-07-22T00:39:56;94622.53;;;18.41;65.18
59829;BME280;45708;51.848;107.620;2023-07-22T00:44:57;94677.44;;;18.72;65.19
59829;BME280;45708;51.848;107.620;2023-07-22T00:50:00;94689.69;;;18.83;64.84
59829;BME280;45708;51.848;107.620;2023-07-22T00:55:02;94679.63;;;18.99;64.56
59829;BME280;45708;51.848;107.620;2023-07-22T01:00:04;94665.34;;;19.67;63.25
59829;BME280;45708;51.848;107.620;2023-07-22T01:05:05;94679.69;;;21.27;58.90
59829;BME280;45708;51.848;107.620;2023-07-22T01:10:07;94661.53;;;20.53;59.99
59829;BME280;45708;51.848;107.620;2023-07-22T01:15:08;94674.59;;;20.17;60.54
59829;BME280;45708;51.848;107.620;2023-07-22T01:20:09;94662.13;;;23.73;53.12
59829;BME280;45708;51.848;107.620;2023-07-22T01:25:10;94662.78;;;22.94;52.79
59829;BME280;45708;51.848;107.620;2023-07-22T01:30:11;94662.84;;;22.08;55.31
59829;BME280;45708;51.848;107.620;2023-07-22T01:35:12;94655.50;;;20.94;56.51
59829;BME280;45708;51.848;107.620;2023-07-22T01:40:13;94657.03;;;21.33;56.31
59829;BME280;45708;51.848;107.620;2023-07-22T01:45:14;94660.41;;;23.46;52.18
59829;BME280;45708;51.848;107.620;2023-07-22T01:50:15;94656.09;;;24.42;48.83
59829;BME280;45708;51.848;107.620;2023-07-22T01:55:16;94657.41;;;23.87;50.56
59829;BME280;45708;51.848;107.620;2023-07-22T02:00:17;94667.84;;;25.32;47.23
59829;BME280;45708;51.848;107.620;2023-07-22T02:05:18;94660.59;;;24.46;47.91
59829;BME280;45708;51.848;107.620;2023-07-22T02:10:18;94663.25;;;22.74;50.34
59829;BME280;45708;51.848;107.620;2023-07-22T02:15:19;94667.19;;;21.91;52.60
59829;BME280;45708;51.848;107.620;2023-07-22T02:20:20;94658.69;;;24.73;48.47
59829;BME280;45708;51.848;107.620;2023-07-22T02:25:21;94652.78;;;25.61;46.02
59829;BME280;45708;51.848;107.620;2023-07-22T02:30:22;94660.75;;;25.66;45.69
59829;BME280;45708;51.848;107.620;2023-07-22T02:35:22;94661.72;;;25.99;45.15
59829;BME280;45708;51.848;107.620;2023-07-22T02:40:23;94669.31;;;25.85;44.51
59829;BME280;45708;51.848;107.620;2023-07-22T02:45:24;94658.34;;;24.92;46.14
59829;BME280;45708;51.848;107.620;2023-07-22T02:50:25;94645.50;;;23.49;48.84
59829;BME280;45708;51.848;107.620;2023-07-22T02:55:26;94661.84;;;23.52;49.02
59829;BME280;45708;51.848;107.620;2023-07-22T03:00:27;94638.63;;;22.44;51.21
59829;BME280;45708;51.848;107.620;2023-07-22T03:05:28;94649.06;;;21.96;52.38
59829;BME280;45708;51.848;107.620;2023-07-22T03:10:29;94641.13;;;22.05;52.49
59829;BME280;45708;51.848;107.620;2023-07-22T03:15:30;94626.31;;;22.88;51.39
59829;BME280;45708;51.848;107.620;2023-07-22T03:20:31;94612.91;;;23.28;50.68
59829;BME280;45708;51.848;107.620;2023-07-22T03:25:33;94613.69;;;23.59;50.37
59829;BME280;45708;51.848;107.620;2023-07-22T03:30:34;94604.22;;;23.71;50.13
59829;BME280;45708;51.848;107.620;2023-07-22T03:35:35;94606.81;;;23.93;49.82
59829;BME280;45708;51.848;107.620;2023-07-22T03:40:36;94611.97;;;24.55;48.45
59829;BME280;45708;51.848;107.620;2023-07-22T03:45:37;94610.16;;;23.50;49.37
59829;BME280;45708;51.848;107.620;2023-07-22T03:50:38;94580.59;;;22.52;50.82
59829;BME280;45708;51.848;107.620;2023-07-22T03:55:38;94617.41;;;22.65;51.26
59829;BME280;45708;51.848;107.620;2023-07-22T04:00:39;94606.19;;;22.86;51.26
59829;BME280;45708;51.848;107.620;2023-07-22T04:05:40;94599.47;;;22.61;51.76
59829;BME280;45708;51.848;107.620;2023-07-22T04:10:41;94594.22;;;22.78;51.66
59829;BME280;45708;51.848;107.620;2023-07-22T04:15:41;94582.41;;;23.19;50.90
59829;BME280;45708;51.848;107.620;2023-07-22T04:20:42;94574.56;;;23.31;50.70
59829;BME280;45708;51.848;107.620;2023-07-22T04:25:44;94578.25;;;23.44;50.23
59829;BME280;45708;51.848;107.620;2023-07-22T04:30:55;94582.22;;;23.46;50.10
59829;BME280;45708;51.848;107.620;2023-07-22T04:35:58;94577.56;;;22.98;50.67
59829;BME280;45708;51.848;107.620;2023-07-22T04:40:59;94580.72;;;22.92;50.61
59829;BME280;45708;51.848;107.620;2023-07-22T04:46:00;94561.16;;;23.09;50.44
59829;BME280;45708;51.848;107.620;2023-07-22T04:51:00;94561.88;;;23.40;49.16
59829;BME280;45708;51.848;107.620;2023-07-22T04:56:01;94561.75;;;23.85;48.80
59829;BME280;45708;51.848;107.620;2023-07-22T05:01:02;94552.06;;;23.84;48.57
59829;BME280;45708;51.848;107.620;2023-07-22T05:06:03;94542.38;;;23.91;48.22
59829;BME280;45708;51.848;107.620;2023-07-22T05:11:04;94552.41;;;24.08;47.45
59829;BME280;45708;51.848;107.620;2023-07-22T05:16:04;94541.44;;;24.13;46.80
59829;BME280;45708;51.848;107.620;2023-07-22T05:21:05;94528.56;;;24.19;47.15
59829;BME280;45708;51.848;107.620;2023-07-22T05:26:06;94539.56;;;24.31;46.77
59829;BME280;45708;51.848;107.620;2023-07-22T05:31:07;94528.31;;;24.29;45.71
59829;BME280;45708;51.848;107.620;2023-07-22T05:36:07;94529.22;;;24.16;46.26
59829;BME280;45708;51.848;107.620;2023-07-22T05:41:08;94518.09;;;23.74;47.07
59829;BME280;45708;51.848;107.620;2023-07-22T05:46:09;94504.44;;;23.96;46.88
59829;BME280;45708;51.848;107.620;2023-07-22T05:51:10;94501.28;;;24.38;46.03
59829;BME280;45708;51.848;107.620;2023-07-22T05:56:11;94497.63;;;24.51;45.22
59829;BME280;45708;51.848;107.620;2023-07-22T06:01:11;94498.59;;;25.10;44.64
59829;BME280;45708;51.848;107.620;2023-07-22T06:06:12;94509.75;;;24.92;44.62
59829;BME280;45708;51.848;107.620;2023-07-22T06:11:13;94502.19;;;24.59;45.05
59829;BME280;45708;51.848;107.620;2023-07-22T06:16:14;94502.38;;;24.54;44.67
59829;BME280;45708;51.848;107.620;2023-07-22T06:21:15;94485.56;;;24.40;44.86
59829;BME280;45708;51.848;107.620;2023-07-22T06:26:15;94478.91;;;25.01;44.11
59829;BME280;45708;51.848;107.620;2023-07-22T06:31:16;94496.47;;;25.16;43.63
59829;BME280;45708;51.848;107.620;2023-07-22T06:36:17;94501.38;;;24.76;43.68
59829;BME280;45708;51.848;107.620;2023-07-22T06:41:18;94479.09;;;24.87;43.79
59829;BME280;45708;51.848;107.620;2023-07-22T06:46:18;94477.13;;;24.50;44.68
59829;BME280;45708;51.848;107.620;2023-07-22T06:51:19;94488.03;;;24.62;44.63
59829;BME280;45708;51.848;107.620;2023-07-22T06:56:20;94481.88;;;24.53;44.38
59829;BME280;45708;51.848;107.620;2023-07-22T07:01:21;94471.84;;;24.62;44.26
59829;BME280;45708;51.848;107.620;2023-07-22T07:06:22;94461.59;;;24.94;44.16
59829;BME280;45708;51.848;107.620;2023-07-22T07:11:22;94474.44;;;24.50;44.78
59829;BME280;45708;51.848;107.620;2023-07-22T07:16:30;94470.13;;;24.57;44.75
59829;BME280;45708;51.848;107.620;2023-07-22T07:21:31;94460.94;;;24.97;44.24
59829;BME280;45708;51.848;107.620;2023-07-22T07:26:32;94474.03;;;24.77;43.69
59829;BME280;45708;51.848;107.620;2023-07-22T07:31:33;94454.47;;;24.89;43.97
59829;BME280;45708;51.848;107.620;2023-07-22T07:36:34;94463.03;;;25.29;42.99
59829;BME280;45708;51.848;107.620;2023-07-22T07:41:34;94450.25;;;25.38;43.08
59829;BME280;45708;51.848;107.620;2023-07-22T07:46:35;94454.88;;;25.38;43.07
59829;BME280;45708;51.848;107.620;2023-07-22T07:51:36;94461.16;;;24.83;43.76
59829;BME280;45708;51.848;107.620;2023-07-22T07:56:37;94444.72;;;24.97;43.60
59829;BME280;45708;51.848;107.620;2023-07-22T08:01:38;94441.13;;;25.22;43.19
59829;BME280;45708;51.848;107.620;2023-07-22T08:06:38;94445.50;;;25.35;42.77
59829;BME280;45708;51.848;107.620;2023-07-22T08:11:39;94448.47;;;25.42;42.45
59829;BME280;45708;51.848;107.620;2023-07-22T08:16:40;94438.50;;;25.64;42.41
59829;BME280;45708;51.848;107.620;2023-07-22T08:21:41;94440.09;;;25.35;42.13
59829;BME280;45708;51.848;107.620;2023-07-22T08:26:42;94427.50;;;24.72;42.75
59829;BME280;45708;51.848;107.620;2023-07-22T08:31:42;94424.13;;;24.83;42.79
59829;BME280;45708;51.848;107.620;2023-07-22T08:36:43;94431.91;;;25.23;42.51
59829;BME280;45708;51.848;107.620;2023-07-22T08:41:48;94419.47;;;24.93;42.99
59829;BME280;45708;51.848;107.620;2023-07-22T08:46:49;94428.88;;;24.86;42.60
59829;BME280;45708;51.848;107.620;2023-07-22T08:51:55;94415.31;;;24.95;42.45
59829;BME280;45708;51.848;107.620;2023-07-22T08:56:56;94425.75;;;25.14;42.47
59829;BME280;45708;51.848;107.620;2023-07-22T09:01:57;94427.22;;;25.03;42.38
59829;BME280;45708;51.848;107.620;2023-07-22T09:06:58;94424.78;;;25.39;42.08
59829;BME280;45708;51.848;107.620;2023-07-22T09:12:00;94424.94;;;25.43;41.76
59829;BME280;45708;51.848;107.620;2023-07-22T09:17:01;94420.53;;;25.59;41.28
59829;BME280;45708;51.848;107.620;2023-07-22T09:22:02;94422.75;;;25.57;41.04
59829;BME280;45708;51.848;107.620;2023-07-22T09:27:03;94413.03;;;25.65;41.06
59829;BME280;45708;51.848;107.620;2023-07-22T09:32:04;94401.59;;;25.38;41.06
59829;BME280;45708;51.848;107.620;2023-07-22T09:37:05;94396.59;;;25.49;41.31
59829;BME280;45708;51.848;107.620;2023-07-22T09:42:06;94408.41;;;25.44;41.13
59829;BME280;45708;51.848;107.620;2023-07-22T09:47:07;94419.41;;;25.10;41.65
59829;BME280;45708;51.848;107.620;2023-07-22T09:52:11;94420.31;;;24.84;41.96
59829;BME280;45708;51.848;107.620;2023-07-22T09:57:13;94412.94;;;24.94;41.69
59829;BME280;45708;51.848;107.620;2023-07-22T10:02:18;94410.44;;;24.88;41.96
59829;BME280;45708;51.848;107.620;2023-07-22T10:07:19;94411.88;;;24.86;42.35
59829;BME280;45708;51.848;107.620;2023-07-22T10:12:21;94403.44;;;24.87;42.34
59829;BME280;45708;51.848;107.620;2023-07-22T10:17:22;94406.75;;;24.93;42.53
59829;BME280;45708;51.848;107.620;2023-07-22T10:22:23;94399.81;;;24.83;42.15
59829;BME280;45708;51.848;107.620;2023-07-22T10:27:25;94395.16;;;24.93;42.59
59829;BME280;45708;51.848;107.620;2023-07-22T10:32:32;94395.81;;;24.90;42.10
59829;BME280;45708;51.848;107.620;2023-07-22T10:37:33;94392.34;;;24.80;42.40
59829;BME280;45708;51.848;107.620;2023-07-22T10:42:34;94387.59;;;24.77;42.20
59829;BME280;45708;51.848;107.620;2023-07-22T10:48:04;94363.81;;;24.62;42.21
59829;BME280;45708;51.848;107.620;2023-07-22T10:53:08;94373.34;;;24.68;42.50
59829;BME280;45708;51.848;107.620;2023-07-22T10:58:09;94378.28;;;24.66;42.31
59829;BME280;45708;51.848;107.620;2023-07-22T11:03:13;94386.19;;;24.71;42.16
59829;BME280;45708;51.848;107.620;2023-07-22T11:08:14;94378.63;;;24.65;41.96
59829;BME280;45708;51.848;107.620;2023-07-22T11:13:15;94372.13;;;24.57;42.16
59829;BME280;45708;51.848;107.620;2023-07-22T11:18:16;94369.13;;;24.50;42.18
59829;BME280;45708;51.848;107.620;2023-07-22T11:23:17;94364.91;;;24.32;42.40
59829;BME280;45708;51.848;107.620;2023-07-22T11:28:19;94377.28;;;24.33;42.57
59829;BME280;45708;51.848;107.620;2023-07-22T11:33:19;94369.19;;;24.33;42.75
59829;BME280;45708;51.848;107.620;2023-07-22T11:38:20;94363.16;;;24.36;42.71
59829;BME280;45708;51.848;107.620;2023-07-22T11:43:21;94359.50;;;24.32;42.62
59829;BME280;45708;51.848;107.620;2023-07-22T11:48:22;94366.66;;;24.27;42.65
59829;BME280;45708;51.848;107.620;2023-07-22T11:53:26;94370.47;;;24.26;42.52
59829;BME280;45708;51.848;107.620;2023-07-22T11:58:28;94370.97;;;24.11;42.58
59829;BME280;45708;51.848;107.620;2023-07-22T12:03:35;94371.94;;;23.98;42.90
59829;BME280;45708;51.848;107.620;2023-07-22T12:08:37;94378.63;;;23.92;43.34
59829;BME280;45708;51.848;107.620;2023-07-22T12:13:37;94374.97;;;23.79;43.66
59829;BME280;45708;51.848;107.620;2023-07-22T12:18:45;94372.31;;;23.71;43.11
59829;BME280;45708;51.848;107.620;2023-07-22T12:23:46;94379.13;;;23.59;43.45
59829;BME280;45708;51.848;107.620;2023-07-22T12:28:47;94390.69;;;23.51;43.73
59829;BME280;45708;51.848;107.620;2023-07-22T12:33:48;94384.78;;;23.41;43.82
59829;BME280;45708;51.848;107.620;2023-07-22T12:38:49;94387.66;;;23.27;43.93
59829;BME280;45708;51.848;107.620;2023-07-22T12:43:49;94390.78;;;23.20;44.26
59829;BME280;45708;51.848;107.620;2023-07-22T12:48:50;94398.25;;;23.15;44.21
59829;BME280;45708;51.848;107.620;2023-07-22T12:53:51;94403.63;;;23.15;44.26
59829;BME280;45708;51.848;107.620;2023-07-22T12:58:52;94407.44;;;23.14;44.69
59829;BME280;45708;51.848;107.620;2023-07-22T13:03:52;94408.69;;;23.08;44.56
59829;BME280;45708;51.848;107.620;2023-07-22T13:08:53;94396.13;;;22.86;44.70
59829;BME280;45708;51.848;107.620;2023-07-22T13:13:54;94412.09;;;22.82;45.21
59829;BME280;45708;51.848;107.620;2023-07-22T13:18:55;94414.28;;;22.80;45.10
59829;BME280;45708;51.848;107.620;2023-07-22T13:23:56;94409.19;;;22.70;45.42
59829;BME280;45708;51.848;107.620;2023-07-22T13:28:57;94427.56;;;22.68;45.82
59829;BME280;45708;51.848;107.620;2023-07-22T13:33:57;94420.66;;;22.53;45.94
59829;BME280;45708;51.848;107.620;2023-07-22T13:38:58;94425.88;;;22.50;46.23
59829;BME280;45708;51.848;107.620;2023-07-22T13:43:59;94426.75;;;22.36;46.70
59829;BME280;45708;51.848;107.620;2023-07-22T13:48:59;94415.91;;;22.19;46.85
59829;BME280;45708;51.848;107.620;2023-07-22T13:54:00;94416.16;;;22.09;47.35
59829;BME280;45708;51.848;107.620;2023-07-22T13:59:01;94424.34;;;22.04;47.63
59829;BME280;45708;51.848;107.620;2023-07-22T14:04:02;94426.94;;;21.95;47.71
59829;BME280;45708;51.848;107.620;2023-07-22T14:09:03;94427.00;;;21.81;48.11
59829;BME280;45708;51.848;107.620;2023-07-22T14:14:05;94420.78;;;21.72;48.35
59829;BME280;45708;51.848;107.620;2023-07-22T14:19:06;94409.28;;;21.58;48.83
59829;BME280;45708;51.848;107.620;2023-07-22T14:24:07;94417.94;;;21.55;49.10
59829;BME280;45708;51.848;107.620;2023-07-22T14:29:08;94416.00;;;21.47;49.26
59829;BME280;45708;51.848;107.620;2023-07-22T14:34:09;94405.69;;;21.27;49.53
59829;BME280;45708;51.848;107.620;2023-07-22T14:39:10;94394.66;;;21.14;50.10
59829;BME280;45708;51.848;107.620;2023-07-22T14:44:10;94408.06;;;21.14;50.46
59829;BME280;45708;51.848;107.620;2023-07-22T14:49:11;94410.69;;;21.06;50.95
59829;BME280;45708;51.848;107.620;2023-07-22T14:54:12;94407.91;;;20.97;51.49
59829;BME280;45708;51.848;107.620;2023-07-22T14:59:15;94386.72;;;20.82;51.70
59829;BME280;45708;51.848;107.620;2023-07-22T15:04:16;94387.94;;;20.76;52.29
59829;BME280;45708;51.848;107.620;2023-07-22T15:09:17;94393.41;;;20.71;52.64
59829;BME280;45708;51.848;107.620;2023-07-22T15:14:17;94395.19;;;20.61;52.87
59829;BME280;45708;51.848;107.620;2023-07-22T15:19:18;94367.66;;;20.42;53.06
59829;BME280;45708;51.848;107.620;2023-07-22T15:24:19;94386.84;;;20.49;53.34
59829;BME280;45708;51.848;107.620;2023-07-22T15:29:20;94371.50;;;20.36;53.54
59829;BME280;45708;51.848;107.620;2023-07-22T15:34:21;94375.28;;;20.35;53.71
59829;BME280;45708;51.848;107.620;2023-07-22T15:39:21;94381.75;;;20.34;53.76
59829;BME280;45708;51.848;107.620;2023-07-22T15:44:22;94376.88;;;20.36;53.85
59829;BME280;45708;51.848;107.620;2023-07-22T15:49:23;94386.97;;;20.44;53.72
59829;BME280;45708;51.848;107.620;2023-07-22T15:54:24;94386.41;;;20.28;54.25
59829;BME280;45708;51.848;107.620;2023-07-22T15:59:24;94376.19;;;19.84;55.25
59829;BME280;45708;51.848;107.620;2023-07-22T16:04:25;94386.75;;;19.43;56.70
59829;BME280;45708;51.848;107.620;2023-07-22T16:09:26;94391.16;;;19.15;57.94
59829;BME280;45708;51.848;107.620;2023-07-22T16:14:27;94390.41;;;18.91;59.04
59829;BME280;45708;51.848;107.620;2023-07-22T16:19:28;94374.75;;;18.79;59.31
59829;BME280;45708;51.848;107.620;2023-07-22T16:24:28;94377.78;;;18.72;59.80
59829;BME280;45708;51.848;107.620;2023-07-22T16:29:29;94354.81;;;18.71;59.38
59829;BME280;45708;51.848;107.620;2023-07-22T16:34:30;94362.66;;;19.05;58.86
59829;BME280;45708;51.848;107.620;2023-07-22T16:39:31;94377.38;;;19.40;58.14
59829;BME280;45708;51.848;107.620;2023-07-22T16:44:31;94372.38;;;19.53;57.90
59829;BME280;45708;51.848;107.620;2023-07-22T16:49:32;94385.72;;;19.58;57.51
59829;BME280;45708;51.848;107.620;2023-07-22T16:54:33;94373.63;;;19.41;57.58
59829;BME280;45708;51.848;107.620;2023-07-22T16:59:34;94383.19;;;19.48;58.19
59829;BME280;45708;51.848;107.620;2023-07-22T17:04:34;94374.75;;;19.73;57.50
59829;BME280;45708;51.848;107.620;2023-07-22T17:09:36;94366.28;;;19.85;57.09
59829;BME280;45708;51.848;107.620;2023-07-22T17:14:37;94362.28;;;19.82;57.42
59829;BME280;45708;51.848;107.620;2023-07-22T17:19:37;94363.88;;;19.83;57.41
59829;BME280;45708;51.848;107.620;2023-07-22T17:24:38;94376.34;;;19.74;57.58
59829;BME280;45708;51.848;107.620;2023-07-22T17:29:39;94380.31;;;19.63;57.57
59829;BME280;45708;51.848;107.620;2023-07-22T17:34:40;94365.06;;;19.39;58.39
59829;BME280;45708;51.848;107.620;2023-07-22T17:39:41;94366.41;;;18.86;59.65
59829;BME280;45708;51.848;107.620;2023-07-22T17:44:41;94368.03;;;18.58;60.36
59829;BME280;45708;51.848;107.620;2023-07-22T17:49:43;94369.13;;;18.33;61.20
59829;BME280;45708;51.848;107.620;2023-07-22T17:54:45;94365.59;;;18.13;61.43
59829;BME280;45708;51.848;107.620;2023-07-22T17:59:46;94356.84;;;18.08;61.14
59829;BME280;45708;51.848;107.620;2023-07-22T18:04:46;94330.91;;;18.08;61.24
59829;BME280;45708;51.848;107.620;2023-07-22T18:09:47;94342.84;;;18.40;60.99
59829;BME280;45708;51.848;107.620;2023-07-22T18:14:48;94348.88;;;18.50;60.80
59829;BME280;45708;51.848;107.620;2023-07-22T18:19:49;94348.19;;;18.40;61.03
59829;BME280;45708;51.848;107.620;2023-07-22T18:24:50;94346.81;;;18.18;61.49
59829;BME280;45708;51.848;107.620;2023-07-22T18:29:50;94365.81;;;17.93;62.33
59829;BME280;45708;51.848;107.620;2023-07-22T18:34:51;94352.69;;;17.68;62.73
59829;BME280;45708;51.848;107.620;2023-07-22T18:39:53;94357.94;;;17.78;62.75
59829;BME280;45708;51.848;107.620;2023-07-22T18:44:57;94362.16;;;17.84;62.51
59829;BME280;45708;51.848;107.620;2023-07-22T18:49:58;94350.13;;;17.86;62.50
59829;BME280;45708;51.848;107.620;2023-07-22T18:54:58;94351.69;;;17.87;62.70
59829;BME280;45708;51.848;107.620;2023-07-22T18:59:59;94351.88;;;17.96;62.70
59829;BME280;45708;51.848;107.620;2023-07-22T19:05:00;94352.81;;;18.10;62.66
59829;BME280;45708;51.848;107.620;2023-07-22T19:10:01;94351.28;;;18.28;62.66
59829;BME280;45708;51.848;107.620;2023-07-22T19:15:02;94355.13;;;18.41;62.51
59829;BME280;45708;51.848;107.620;2023-07-22T19:20:03;94353.00;;;18.43;62.79
59829;BME280;45708;51.848;107.620;2023-07-22T19:25:04;94352.31;;;18.32;63.06
59829;BME280;45708;51.848;107.620;2023-07-22T19:30:05;94344.16;;;18.18;63.46
59829;BME280;45708;51.848;107.620;2023-07-22T19:35:07;94331.72;;;18.09;63.71
59829;BME280;45708;51.848;107.620;2023-07-22T19:40:08;94329.31;;;18.07;63.61
59829;BME280;45708;51.848;107.620;2023-07-22T19:45:09;94339.88;;;18.17;63.76
59829;BME280;45708;51.848;107.620;2023-07-22T19:50:10;94342.00;;;18.20;63.60
59829;BME280;45708;51.848;107.620;2023-07-22T19:55:11;94350.06;;;18.15;63.88
59829;BME280;45708;51.848;107.620;2023-07-22T20:00:12;94332.50;;;18.09;63.88
59829;BME280;45708;51.848;107.620;2023-07-22T20:05:12;94336.84;;;18.05;63.95
59829;BME280;45708;51.848;107.620;2023-07-22T20:10:13;94337.91;;;18.04;64.10
59829;BME280;45708;51.848;107.620;2023-07-22T20:15:14;94330.69;;;18.05;64.31
59829;BME280;45708;51.848;107.620;2023-07-22T20:20:15;94334.44;;;18.04;64.14
59829;BME280;45708;51.848;107.620;2023-07-22T20:25:16;94335.34;;;17.94;64.07
59829;BME280;45708;51.848;107.620;2023-07-22T20:30:16;94337.03;;;17.85;64.62
59829;BME280;45708;51.848;107.620;2023-07-22T20:35:18;94321.19;;;17.64;64.97
59829;BME280;45708;51.848;107.620;2023-07-22T20:40:19;94329.50;;;17.58;65.08
59829;BME280;45708;51.848;107.620;2023-07-22T20:45:19;94337.38;;;17.44;65.63
59829;BME280;45708;51.848;107.620;2023-07-22T20:50:20;94342.50;;;16.96;66.96
59829;BME280;45708;51.848;107.620;2023-07-22T20:55:21;94328.81;;;16.64;67.90
59829;BME280;45708;51.848;107.620;2023-07-22T21:00:22;94334.38;;;16.72;67.83
59829;BME280;45708;51.848;107.620;2023-07-22T21:05:23;94334.78;;;16.95;67.71
59829;BME280;45708;51.848;107.620;2023-07-22T21:10:23;94318.88;;;17.19;67.19
59829;BME280;45708;51.848;107.620;2023-07-22T21:15:24;94328.91;;;17.32;67.07
59829;BME280;45708;51.848;107.620;2023-07-22T21:20:25;94329.38;;;17.39;67.08
59829;BME280;45708;51.848;107.620;2023-07-22T21:25:26;94321.94;;;17.36;66.79
59829;BME280;45708;51.848;107.620;2023-07-22T21:30:26;94335.22;;;17.41;66.92
59829;BME280;45708;51.848;107.620;2023-07-22T21:35:27;94329.31;;;17.49;66.73
59829;BME280;45708;51.848;107.620;2023-07-22T21:40:28;94340.94;;;17.63;66.36
59829;BME280;45708;51.848;107.620;2023-07-22T21:45:29;94337.91;;;17.75;66.14
59829;BME280;45708;51.848;107.620;2023-07-22T21:50:30;94327.00;;;17.72;65.83
59829;BME280;45708;51.848;107.620;2023-07-22T21:55:32;94352.44;;;17.93;65.73
59829;BME280;45708;51.848;107.620;2023-07-22T22:00:33;94340.09;;;17.97;65.38
59829;BME280;45708;51.848;107.620;2023-07-22T22:05:33;94326.22;;;17.95;65.52
59829;BME280;45708;51.848;107.620;2023-07-22T22:10:36;94319.75;;;18.01;65.35
59829;BME280;45708;51.848;107.620;2023-07-22T22:15:37;94337.13;;;18.28;64.67
59829;BME280;45708;51.848;107.620;2023-07-22T22:20:37;94323.19;;;18.31;64.47
59829;BME280;45708;51.848;107.620;2023-07-22T22:25:38;94320.44;;;18.36;64.30
59829;BME280;45708;51.848;107.620;2023-07-22T22:30:39;94335.59;;;19.07;63.04
59829;BME280;45708;51.848;107.620;2023-07-22T22:35:40;94332.84;;;20.37;60.42
59829;BME280;45708;51.848;107.620;2023-07-22T22:40:41;94330.63;;;21.44;58.17
59829;BME280;45708;51.848;107.620;2023-07-22T22:45:43;94329.03;;;21.43;58.14
59829;BME280;45708;51.848;107.620;2023-07-22T22:50:44;94324.72;;;20.42;59.25
59829;BME280;45708;51.848;107.620;2023-07-22T22:55:45;94329.97;;;20.06;59.58
59829;BME280;45708;51.848;107.620;2023-07-22T23:00:46;94319.88;;;20.44;58.87
59829;BME280;45708;51.848;107.620;2023-07-22T23:05:47;94333.88;;;19.67;59.87
59829;BME280;45708;51.848;107.620;2023-07-22T23:10:48;94344.34;;;19.96;59.77
59829;BME280;45708;51.848;107.620;2023-07-22T23:15:49;94318.88;;;20.26;58.74
59829;BME280;45708;51.848;107.620;2023-07-22T23:20:49;94331.19;;;20.55;58.68
59829;BME280;45708;51.848;107.620;2023-07-22T23:25:50;94331.31;;;22.03;55.61
59829;BME280;45708;51.848;107.620;2023-07-22T23:30:55;94315.06;;;22.48;55.49
59829;BME280;45708;51.848;107.620;2023-07-22T23:35:56;94330.44;;;23.30;53.17
59829;BME280;45708;51.848;107.620;2023-07-22T23:40:57;94329.16;;;23.36;52.55
59829;BME280;45708;51.848;107.620;2023-07-22T23:45:58;94320.97;;;21.96;54.76
59829;BME280;45708;51.848;107.620;2023-07-22T23:50:59;94321.16;;;24.09;50.39
59829;BME280;45708;51.848;107.620;2023-07-22T23:56:00;94323.38;;;23.98;50.35
